createdAt,value
2022-12-14T00:02:15.260Z,17.10
2022-12-14T00:05:00.646Z,16.75
2022-12-14T00:07:45.975Z,17.83
2022-12-14T00:10:35.314Z,17.77
2022-12-14T00:13:20.531Z,18.10
2022-12-14T00:16:17.344Z,18.08
2022-12-14T00:19:05.265Z,17.33
2022-12-14T00:21:51.653Z,17.50
2022-12-14T00:24:38.707Z,17.95
2022-12-14T00:27:23.696Z,17.95
2022-12-14T00:30:10.515Z,16.95
2022-12-14T00:32:56.806Z,17.30
2022-12-14T00:35:42.170Z,17.02
2022-12-14T00:38:28.480Z,17.17
2022-12-14T00:41:13.874Z,16.88
2022-12-14T00:43:59.435Z,17.13
2022-12-14T00:46:44.711Z,16.15
2022-12-14T00:49:30.050Z,17.17
2022-12-14T00:52:15.106Z,17.13
2022-12-14T00:55:00.427Z,16.83
2022-12-14T00:57:45.820Z,17.00
2022-12-14T01:00:31.675Z,17.05
2022-12-14T01:03:16.939Z,16.70
2022-12-14T01:06:02.657Z,15.40
2022-12-14T01:08:49.031Z,17.15
2022-12-14T01:11:34.110Z,16.00
2022-12-14T01:14:21.243Z,16.77
2022-12-14T01:17:07.062Z,16.70
2022-12-14T01:19:52.063Z,16.73
2022-12-14T01:22:37.948Z,17.38
2022-12-14T01:25:23.241Z,16.35
2022-12-14T01:28:08.487Z,17.02
2022-12-14T01:30:53.336Z,15.70
2022-12-14T01:33:38.780Z,16.88
2022-12-14T01:36:26.585Z,16.58
2022-12-14T01:39:13.914Z,16.45
2022-12-14T01:41:59.270Z,15.80
2022-12-14T01:44:44.348Z,16.45
2022-12-14T01:47:37.744Z,16.15
2022-12-14T01:50:37.785Z,16.63
2022-12-14T01:53:23.670Z,15.60
2022-12-14T01:56:09.111Z,15.15
2022-12-14T01:58:57.530Z,15.68
2022-12-14T02:01:43.080Z,16.00
2022-12-14T02:04:28.985Z,16.17
2022-12-14T02:07:16.001Z,16.92
2022-12-14T02:10:05.532Z,17.00
2022-12-14T02:12:57.260Z,16.30
2022-12-14T02:15:43.538Z,16.88
2022-12-14T02:18:31.228Z,17.50
2022-12-14T02:21:25.153Z,16.60
2022-12-14T02:24:22.833Z,15.95
2022-12-14T02:27:32.564Z,16.08
2022-12-14T02:30:27.037Z,14.65
2022-12-14T02:33:11.859Z,15.35
2022-12-14T02:36:00.297Z,15.73
2022-12-14T02:38:59.270Z,15.25
2022-12-14T02:42:04.346Z,15.52
2022-12-14T02:45:06.174Z,16.00
2022-12-14T02:47:58.980Z,15.80
2022-12-14T02:50:53.725Z,15.50
2022-12-14T02:53:53.832Z,14.98
2022-12-14T02:56:50.662Z,15.48
2022-12-14T02:59:36.340Z,15.70
2022-12-14T03:02:21.563Z,16.00
2022-12-14T03:05:07.166Z,15.82
2022-12-14T03:08:03.879Z,15.48
2022-12-14T03:10:55.246Z,15.98
2022-12-14T03:13:49.834Z,15.77
2022-12-14T03:16:44.806Z,17.02
2022-12-14T03:19:38.904Z,15.98
2022-12-14T03:22:28.764Z,15.50
2022-12-14T03:25:19.517Z,17.05
2022-12-14T03:28:14.560Z,17.05
2022-12-14T03:31:06.821Z,17.30
2022-12-14T03:33:54.948Z,17.27
2022-12-14T03:37:04.263Z,17.55
2022-12-14T03:39:49.620Z,17.05
2022-12-14T03:43:05.206Z,16.40
2022-12-14T03:46:16.807Z,15.38
2022-12-14T03:49:28.290Z,16.33
2022-12-14T03:52:19.474Z,16.23
2022-12-14T03:55:13.431Z,16.58
2022-12-14T03:58:10.115Z,15.18
2022-12-14T04:01:15.553Z,15.57
2022-12-14T04:04:10.902Z,15.95
2022-12-14T04:07:14.041Z,15.45
2022-12-14T04:10:36.567Z,16.15
2022-12-14T04:13:49.004Z,16.17
2022-12-14T04:16:59.379Z,16.80
2022-12-14T04:19:54.816Z,14.82
2022-12-14T04:22:49.496Z,15.95
2022-12-14T04:25:57.343Z,15.50
2022-12-14T04:29:08.819Z,16.20
2022-12-14T04:32:01.553Z,15.38
2022-12-14T04:34:51.111Z,16.02
2022-12-14T04:37:39.278Z,15.32
2022-12-14T04:40:37.201Z,15.00
2022-12-14T04:43:28.298Z,15.98
2022-12-14T04:46:40.389Z,14.82
2022-12-14T04:49:49.233Z,15.20
2022-12-14T04:52:40.904Z,14.23
2022-12-14T04:55:41.976Z,13.80
2022-12-14T04:58:29.997Z,15.20
2022-12-14T05:01:24.387Z,14.60
2022-12-14T05:04:25.412Z,14.90
2022-12-14T05:07:14.106Z,13.98
2022-12-14T05:10:09.593Z,14.20
2022-12-14T05:13:03.549Z,15.57
2022-12-14T05:15:51.915Z,13.60
2022-12-14T05:18:37.217Z,13.73
2022-12-14T05:21:40.829Z,15.65
2022-12-14T05:24:26.029Z,13.30
2022-12-14T05:27:10.850Z,14.40
2022-12-14T05:29:56.202Z,13.93
2022-12-14T05:32:41.714Z,14.23
2022-12-14T05:35:26.843Z,14.23
2022-12-14T05:38:13.203Z,13.18
2022-12-14T05:40:58.421Z,14.23
2022-12-14T05:43:43.754Z,14.32
2022-12-14T05:46:28.754Z,14.20
2022-12-14T05:49:13.815Z,14.00
2022-12-14T05:51:59.200Z,12.88
2022-12-14T05:54:44.394Z,12.68
2022-12-14T05:57:33.652Z,13.45
2022-12-14T06:00:18.865Z,13.38
2022-12-14T06:03:04.165Z,11.90
2022-12-14T06:05:49.306Z,12.57
2022-12-14T06:08:37.066Z,12.02
2022-12-14T06:11:23.335Z,12.35
2022-12-14T06:14:09.646Z,12.32
2022-12-14T06:16:54.763Z,11.55
2022-12-14T06:19:39.864Z,11.15
2022-12-14T06:22:25.108Z,11.32
2022-12-14T06:25:10.037Z,11.80
2022-12-14T06:27:55.481Z,11.82
2022-12-14T06:30:40.768Z,11.05
2022-12-14T06:33:27.031Z,11.65
2022-12-14T06:36:34.173Z,10.98
2022-12-14T06:39:19.086Z,10.85
2022-12-14T06:42:04.743Z,11.38
2022-12-14T06:44:50.013Z,11.32
2022-12-14T06:47:35.000Z,11.00
2022-12-14T06:50:20.355Z,10.65
2022-12-14T06:53:05.577Z,11.13
2022-12-14T06:55:50.832Z,13.27
2022-12-14T06:58:36.205Z,11.53
2022-12-14T07:01:24.163Z,12.02
2022-12-14T07:04:09.830Z,12.25
2022-12-14T07:06:54.989Z,12.07
2022-12-14T07:09:40.056Z,12.02
2022-12-14T07:12:25.496Z,11.05
2022-12-14T07:15:11.199Z,11.48
2022-12-14T07:17:56.306Z,12.05
2022-12-14T07:20:41.294Z,10.95
2022-12-14T07:23:28.599Z,11.43
2022-12-14T07:26:32.662Z,12.27
2022-12-14T07:29:17.671Z,11.80
2022-12-14T07:32:03.836Z,11.13
2022-12-14T07:34:48.878Z,12.70
2022-12-14T07:37:33.723Z,16.13
2022-12-14T07:40:18.927Z,16.90
2022-12-14T07:43:03.859Z,22.55
2022-12-14T07:45:49.389Z,24.13
2022-12-14T07:48:34.963Z,14.82
2022-12-14T07:51:23.127Z,14.45
2022-12-14T07:54:08.773Z,14.82
2022-12-14T07:56:53.593Z,16.15
2022-12-14T07:59:40.022Z,22.70
2022-12-14T08:02:25.417Z,37.55
2022-12-14T08:05:12.752Z,36.85
2022-12-14T08:07:58.262Z,22.58
2022-12-14T08:10:43.138Z,16.13
2022-12-14T08:13:28.717Z,13.45
2022-12-14T08:16:16.061Z,14.30
2022-12-14T08:19:01.655Z,13.75
2022-12-14T08:21:46.974Z,13.93
2022-12-14T08:24:32.171Z,14.43
2022-12-14T08:27:17.132Z,13.98
2022-12-14T08:30:02.315Z,13.68
2022-12-14T08:32:47.070Z,14.25
2022-12-14T08:35:35.717Z,13.65
2022-12-14T08:38:20.948Z,13.80
2022-12-14T08:41:14.782Z,13.18
2022-12-14T08:44:01.800Z,14.15
2022-12-14T08:46:46.975Z,13.85
2022-12-14T08:49:32.920Z,14.57
2022-12-14T08:52:18.342Z,15.63
2022-12-14T08:55:03.748Z,17.02
2022-12-14T08:57:48.876Z,14.90
2022-12-14T09:00:34.324Z,16.38
2022-12-14T09:03:19.624Z,17.15
2022-12-14T09:06:07.688Z,17.02
2022-12-14T09:08:52.700Z,15.52
2022-12-14T09:11:37.880Z,15.02
2022-12-14T09:14:23.282Z,15.60
2022-12-14T09:17:08.424Z,14.02
2022-12-14T09:19:53.638Z,14.32
2022-12-14T09:22:39.124Z,16.95
2022-12-14T09:25:24.052Z,15.57
2022-12-14T09:28:09.172Z,15.40
2022-12-14T09:30:56.533Z,15.77
2022-12-14T09:33:41.531Z,16.85
2022-12-14T09:36:28.214Z,16.15
2022-12-14T09:39:15.014Z,17.27
2022-12-14T09:42:09.590Z,16.88
2022-12-14T09:45:07.186Z,16.58
2022-12-14T09:48:18.258Z,16.73
2022-12-14T09:51:03.679Z,16.02
2022-12-14T09:54:02.539Z,15.73
2022-12-14T09:56:48.453Z,16.80
2022-12-14T09:59:34.068Z,17.67
2022-12-14T10:02:39.905Z,16.63
2022-12-14T10:05:57.809Z,15.85
2022-12-14T10:09:04.717Z,16.15
2022-12-14T10:12:08.733Z,15.13
2022-12-14T10:15:08.988Z,16.25
2022-12-14T10:18:00.373Z,16.52
2022-12-14T10:21:12.846Z,16.35
2022-12-14T10:24:02.720Z,13.70
2022-12-14T10:26:52.044Z,14.00
2022-12-14T10:29:46.674Z,14.75
2022-12-14T10:32:40.582Z,15.38
2022-12-14T10:35:31.979Z,16.45
2022-12-14T10:38:37.264Z,15.65
2022-12-14T10:41:28.776Z,14.95
2022-12-14T10:44:21.193Z,20.52
2022-12-14T10:47:17.657Z,15.82
2022-12-14T10:50:16.067Z,15.38
2022-12-14T10:53:04.188Z,14.15
2022-12-14T10:55:55.844Z,14.20
2022-12-14T10:58:44.670Z,13.57
2022-12-14T11:01:29.618Z,12.80
2022-12-14T11:04:44.793Z,13.00
2022-12-14T11:07:33.175Z,12.48
2022-12-14T11:10:32.602Z,12.20
2022-12-14T11:13:20.697Z,12.40
2022-12-14T11:16:30.312Z,12.00
2022-12-14T11:19:21.993Z,12.32
2022-12-14T11:22:21.789Z,12.85
2022-12-14T11:25:27.515Z,14.25
2022-12-14T11:28:49.940Z,12.43
2022-12-14T11:31:39.103Z,12.85
2022-12-14T11:34:39.087Z,13.75
2022-12-14T11:37:30.773Z,11.82
2022-12-14T11:40:27.703Z,11.68
2022-12-14T11:43:27.802Z,10.40
2022-12-14T11:46:13.146Z,14.00
2022-12-14T11:48:58.032Z,12.75
2022-12-14T11:52:01.545Z,11.32
2022-12-14T11:54:50.163Z,10.93
2022-12-14T11:57:42.654Z,10.82
2022-12-14T12:00:31.400Z,10.68
2022-12-14T12:03:30.292Z,10.10
2022-12-14T12:06:22.524Z,9.60
2022-12-14T12:09:26.449Z,8.95
2022-12-14T12:12:21.287Z,8.60
2022-12-14T12:15:16.515Z,9.38
2022-12-14T12:18:25.813Z,17.67
2022-12-14T12:21:27.831Z,14.47
2022-12-14T12:24:12.833Z,11.45
2022-12-14T12:27:11.560Z,9.27
2022-12-14T12:30:28.622Z,10.67
2022-12-14T12:33:28.862Z,16.45
2022-12-14T12:36:22.024Z,10.70
2022-12-14T12:39:16.139Z,11.10
2022-12-14T12:42:26.814Z,11.43
2022-12-14T12:45:30.740Z,11.77
2022-12-14T12:48:21.677Z,11.63
2022-12-14T12:51:14.535Z,10.25
2022-12-14T12:54:12.003Z,8.88
2022-12-14T12:57:00.477Z,10.25
2022-12-14T12:59:55.855Z,9.93
2022-12-14T13:02:51.661Z,9.82
2022-12-14T13:05:48.404Z,9.23
2022-12-14T13:08:39.306Z,8.90
2022-12-14T13:11:35.135Z,10.73
2022-12-14T13:14:32.481Z,10.23
2022-12-14T13:17:33.626Z,10.07
2022-12-14T13:20:27.113Z,10.38
2022-12-14T13:23:43.473Z,9.85
2022-12-14T13:26:56.525Z,10.20
2022-12-14T13:30:01.865Z,12.25
2022-12-14T13:33:05.523Z,18.42
2022-12-14T13:35:53.762Z,22.98
2022-12-14T13:39:17.699Z,22.00
2022-12-14T13:42:37.719Z,12.38
2022-12-14T13:48:23.604Z,10.60
2022-12-14T13:51:18.967Z,11.68
2022-12-14T13:54:07.797Z,9.18
2022-12-14T13:57:24.318Z,10.27
2022-12-14T14:00:44.587Z,10.52
2022-12-14T14:03:32.741Z,10.48
2022-12-14T14:06:22.344Z,11.75
2022-12-14T14:09:25.884Z,11.57
2022-12-14T14:12:32.265Z,9.77
2022-12-14T14:15:29.925Z,10.55
2022-12-14T14:18:20.572Z,12.52
2022-12-14T14:21:30.708Z,13.75
2022-12-14T14:24:16.831Z,12.35
2022-12-14T14:27:19.013Z,12.25
2022-12-14T14:30:35.684Z,11.00
2022-12-14T14:33:45.988Z,11.90
2022-12-14T14:36:35.739Z,12.35
2022-12-14T14:42:47.932Z,16.35
2022-12-14T14:45:41.095Z,24.38
2022-12-14T14:48:44.356Z,15.45
2022-12-14T14:51:34.324Z,14.68
2022-12-14T14:58:05.187Z,12.48
2022-12-14T15:01:16.283Z,13.80
2022-12-14T15:04:06.121Z,15.65
2022-12-14T15:06:57.298Z,12.80
2022-12-14T15:10:04.294Z,14.23
2022-12-14T15:12:53.044Z,13.38
2022-12-14T15:15:44.193Z,17.63
2022-12-14T15:18:31.868Z,15.80
2022-12-14T15:21:18.735Z,21.60
2022-12-14T15:24:04.134Z,29.30
2022-12-14T15:26:49.137Z,22.67
2022-12-14T15:29:34.523Z,22.10
2022-12-14T15:32:23.778Z,17.00
2022-12-14T15:35:15.442Z,17.75
2022-12-14T15:38:06.294Z,25.73
2022-12-14T15:40:57.354Z,19.48
2022-12-14T15:43:47.696Z,15.05
2022-12-14T15:46:34.514Z,15.13
2022-12-14T15:49:23.145Z,14.70
2022-12-14T15:52:10.634Z,15.07
2022-12-14T15:54:56.255Z,15.55
2022-12-14T15:57:41.307Z,15.40
2022-12-14T16:00:26.588Z,16.15
2022-12-14T16:03:30.624Z,16.92
2022-12-14T16:06:17.361Z,16.17
2022-12-14T16:09:28.458Z,16.50
2022-12-14T16:12:24.538Z,17.75
2022-12-14T16:15:22.416Z,19.65
2022-12-14T16:18:13.565Z,15.98
2022-12-14T16:21:01.276Z,14.80
2022-12-14T16:23:46.642Z,15.32
2022-12-14T16:26:37.614Z,15.00
2022-12-14T16:29:27.678Z,13.88
2022-12-14T16:35:02.712Z,12.60
2022-12-14T16:37:51.296Z,16.50
2022-12-14T16:40:40.315Z,14.00
2022-12-14T16:43:27.893Z,14.13
2022-12-14T16:46:15.726Z,13.55
2022-12-14T16:49:22.310Z,14.45
2022-12-14T16:52:20.051Z,14.07
2022-12-14T16:55:12.030Z,15.10
2022-12-14T16:58:01.399Z,13.40
2022-12-14T17:00:58.311Z,11.77
2022-12-14T17:03:44.001Z,14.25
2022-12-14T17:06:39.091Z,11.75
2022-12-14T17:09:27.482Z,13.45
2022-12-14T17:12:17.747Z,11.48
2022-12-14T17:15:03.228Z,12.57
2022-12-14T17:17:51.655Z,19.02
2022-12-14T17:20:37.213Z,13.00
2022-12-14T17:23:23.057Z,12.13
2022-12-14T17:26:18.566Z,12.65
2022-12-14T17:29:03.951Z,13.30
2022-12-14T17:31:51.754Z,11.48
2022-12-14T17:34:36.995Z,12.43
2022-12-14T17:37:24.477Z,11.85
2022-12-14T17:40:10.007Z,13.20
2022-12-14T17:42:57.465Z,12.65
2022-12-14T17:45:42.907Z,15.43
2022-12-14T17:48:28.720Z,15.65
2022-12-14T17:51:25.575Z,16.23
2022-12-14T17:54:19.007Z,17.10
2022-12-14T17:57:07.354Z,16.85
2022-12-14T18:00:11.745Z,16.17
2022-12-14T18:02:57.440Z,16.13
2022-12-14T18:05:48.414Z,15.52
2022-12-14T18:08:34.311Z,15.18
2022-12-14T18:11:22.500Z,16.75
2022-12-14T18:14:09.094Z,16.73
2022-12-14T18:16:55.611Z,18.35
2022-12-14T18:19:40.924Z,16.80
2022-12-14T18:22:26.125Z,17.08
2022-12-14T18:25:27.058Z,17.52
2022-12-14T18:28:12.305Z,19.15
2022-12-14T18:31:02.156Z,18.15
2022-12-14T18:33:47.560Z,23.38
2022-12-14T18:36:32.701Z,20.35
2022-12-14T18:39:18.318Z,19.55
2022-12-14T18:42:03.675Z,22.30
2022-12-14T18:44:48.978Z,19.67
2022-12-14T18:47:41.710Z,20.50
2022-12-14T18:50:29.204Z,18.90
2022-12-14T18:53:16.778Z,17.08
2022-12-14T18:56:03.761Z,19.00
2022-12-14T18:58:50.090Z,16.33
2022-12-14T19:01:35.307Z,16.08
2022-12-14T19:04:22.336Z,15.73
2022-12-14T19:07:07.309Z,17.35
2022-12-14T19:09:52.658Z,15.77
2022-12-14T19:12:37.860Z,17.85
2022-12-14T19:15:26.510Z,14.38
2022-12-14T19:18:11.985Z,15.20
2022-12-14T19:20:57.088Z,14.98
2022-12-14T19:23:42.081Z,15.05
2022-12-14T19:26:28.999Z,15.07
2022-12-14T19:29:14.098Z,17.65
2022-12-14T19:32:04.828Z,15.02
2022-12-14T19:34:50.900Z,14.63
2022-12-14T19:37:36.183Z,12.77
2022-12-14T19:40:21.498Z,13.68
2022-12-14T19:43:06.609Z,12.90
2022-12-14T19:45:52.210Z,17.75
2022-12-14T19:48:38.167Z,15.68
2022-12-14T19:51:23.621Z,12.80
2022-12-14T19:54:09.118Z,14.05
2022-12-14T19:56:54.328Z,15.90
2022-12-14T19:59:39.571Z,17.67
2022-12-14T20:02:25.151Z,12.63
2022-12-14T20:05:10.687Z,13.23
2022-12-14T20:07:55.945Z,12.02
2022-12-14T20:10:40.846Z,14.50
2022-12-14T20:13:27.385Z,13.93
2022-12-14T20:16:17.079Z,17.42
2022-12-14T20:19:03.696Z,28.65
2022-12-14T20:21:48.976Z,11.50
2022-12-14T20:24:35.781Z,12.70
2022-12-14T20:27:20.792Z,12.95
2022-12-14T20:30:06.741Z,12.10
2022-12-14T20:32:51.754Z,11.65
2022-12-14T20:35:36.899Z,11.60
2022-12-14T20:38:22.135Z,9.35
2022-12-14T20:41:10.170Z,10.80
2022-12-14T20:43:55.835Z,11.15
2022-12-14T20:46:44.676Z,11.93
2022-12-14T20:49:32.791Z,11.43
2022-12-14T20:52:17.739Z,10.65
2022-12-14T20:55:03.140Z,8.82
2022-12-14T20:57:48.305Z,9.15
2022-12-14T21:00:33.822Z,8.40
2022-12-14T21:03:19.076Z,9.38
2022-12-14T21:06:04.379Z,14.85
2022-12-14T21:09:02.279Z,10.73
2022-12-14T21:12:08.795Z,10.20
2022-12-14T21:14:56.285Z,9.32
2022-12-14T21:17:41.431Z,8.93
2022-12-14T21:20:26.596Z,8.73
2022-12-14T21:23:11.740Z,8.85
2022-12-14T21:26:02.161Z,8.32
2022-12-14T21:28:47.401Z,11.32
2022-12-14T21:31:33.250Z,18.70
2022-12-14T21:34:20.315Z,13.68
2022-12-14T21:37:05.663Z,13.23
2022-12-14T21:39:54.256Z,15.00
2022-12-14T21:42:40.968Z,21.70
2022-12-14T21:45:26.268Z,18.48
2022-12-14T21:48:11.329Z,10.20
2022-12-14T21:50:56.264Z,13.10
2022-12-14T21:53:58.474Z,12.90
2022-12-14T21:57:02.179Z,14.48
2022-12-14T21:59:47.353Z,9.18
2022-12-14T22:02:32.689Z,7.18
2022-12-14T22:05:18.191Z,6.80
2022-12-14T22:08:03.329Z,6.78
2022-12-14T22:10:48.636Z,7.95
2022-12-14T22:13:33.856Z,9.10
2022-12-14T22:16:18.916Z,9.40
2022-12-14T22:19:04.037Z,8.50
2022-12-14T22:21:50.996Z,7.75
2022-12-14T22:24:36.310Z,7.40
2022-12-14T22:27:21.548Z,7.07
2022-12-14T22:30:08.604Z,6.35
2022-12-14T22:32:53.539Z,6.97
2022-12-14T22:35:38.510Z,7.20
2022-12-14T22:38:25.118Z,6.72
2022-12-14T22:41:14.187Z,6.70
2022-12-14T22:43:59.546Z,7.13
2022-12-14T22:46:44.994Z,7.68
2022-12-14T22:49:30.194Z,8.73
2022-12-14T22:52:17.523Z,7.78
2022-12-14T22:55:07.727Z,7.63
2022-12-14T22:57:54.023Z,8.23
2022-12-14T23:00:38.979Z,8.15
2022-12-14T23:03:25.428Z,7.50
2022-12-14T23:06:15.574Z,7.25
2022-12-14T23:12:23.120Z,6.60
2022-12-14T23:15:28.143Z,7.00
2022-12-14T23:18:31.927Z,7.20
2022-12-14T23:21:35.686Z,7.00
2022-12-14T23:24:39.507Z,8.70
2022-12-14T23:27:43.355Z,7.28
2022-12-14T23:30:47.249Z,6.25
2022-12-14T23:33:51.595Z,7.90
2022-12-14T23:36:55.407Z,7.35
2022-12-14T23:39:59.199Z,7.28
2022-12-14T23:43:03.053Z,7.30
2022-12-14T23:46:06.777Z,7.07
2022-12-14T23:49:15.709Z,6.95
2022-12-14T23:52:20.119Z,6.88
2022-12-14T23:55:24.643Z,6.28
2022-12-14T23:58:28.616Z,6.15
